KGBD

Great Bend Municipal Airport

Great Bend, Kansas, USA
KGBD 161720Z 1618/1718 07007KT P6SM SCT080 FM162200 09007KT P6SM VCTS SCT060 BKN130CB FM171000 13006KT P6SM BKN120 AMD LTD TO CLD VIS AND WIND
Issued Valid From Valid To
Jul-16 @ 17:20 UTC
(3 hours ago)
Jul-16 @ 18:00 UTC
(2 hours ago)
Jul-17 @ 18:00 UTC
(in 22 hours)
Jul-16 @ 18:00 to Jul-16 @ 22:00
KGBD 161720Z 1618/1718 07007KT P6SM SCT080
Wind Visibility Clouds
70° at 7 knots Greater than 6 miles
  • Scattered at 8,000' AGL
From Jul-16 @ 22:00 to Jul-17 @ 10:00
FM162200 09007KT P6SM VCTS SCT060 BKN130CB
Wind Visibility Clouds Conditions
90° at 7 knots Greater than 6 miles
  • Scattered at 6,000' AGL
  • Broken at 13,000' AGL
  • Area Thunderstorm
From Jul-17 @ 10:00 to Jul-17 @ 18:00
FM171000 13006KT P6SM BKN120 AMD LTD TO CLD VIS AND WIND
Wind Visibility Clouds
130° at 6 knots Greater than 6 miles
  • Broken at 12,000' AGL
KGBD 161720Z 1618/1718 07007KT P6SM SCT080 FM162200 09007KT P6SM VCTS SCT060 BKN130CB FM171000 13006KT P6SM BKN120 AMD LTD TO CLD VIS AND WIND
Issued Jul-16 @ 17:20 UTC
(3 hours ago)
Valid From Jul-16 @ 18:00 UTC
(2 hours ago)
Valid To Jul-17 @ 18:00 UTC
(in 22 hours)
Jul-16 @ 18:00 - Jul-16 @ 22:00
Wind Visibility
70° at 7 knots Greater than 6 miles
Clouds
  • Scattered at 8,000' AGL
From Jul-16 @ 22:00 - Jul-17 @ 10:00
Wind Visibility
90° at 7 knots Greater than 6 miles
Clouds
  • Scattered at 6,000' AGL
  • Broken at 13,000' AGL
Conditions
  • Area Thunderstorm
From Jul-17 @ 10:00 - Jul-17 @ 18:00
Wind Visibility
130° at 6 knots Greater than 6 miles
Clouds
  • Broken at 12,000' AGL